Minatare, Nebraska
Current Conditions -  °F | °C
As of 6:53 AM on Saturday 22 Nov 2014 (Local Time) from KBFF Reporting Station
Clear Clear  
Wind Chill: 19°   Ceiling: Unl
Heat Index: 26°   Visibility: 10mi
Dew Point: 20°   Wind: 6mph
Humidity: 78%   Direction: 120°ESE
Pressure: 29.71"   Gusts: NA
Location:  41.81°N, 103.5°W
Report Text: KBFF 221353Z AUTO 12005KT 10SM CLR M03/M07 A2971 RMK AO2 SLP085 T10331067
Loading
Personal Weather Stations






























Interactive Weather Map New forecast layout! Learn more

10-Day Weather Forecast

Advertisements
Track Severe Weather on mobile